createdAt,value
2022-11-15T00:01:18.847Z,84.90
2022-11-15T00:06:21.851Z,84.89
2022-11-15T00:11:24.907Z,84.93
2022-11-15T00:16:27.888Z,84.83
2022-11-15T00:21:30.951Z,84.88
2022-11-15T00:26:33.879Z,84.85
2022-11-15T00:31:36.793Z,84.86
2022-11-15T00:36:39.672Z,84.89
2022-11-15T00:41:42.722Z,84.91
2022-11-15T00:46:45.660Z,84.90
2022-11-15T00:51:48.588Z,85.04
2022-11-15T00:56:51.469Z,85.13
2022-11-15T01:01:54.349Z,85.40
2022-11-15T01:06:57.239Z,85.53
2022-11-15T01:12:00.126Z,85.77
2022-11-15T01:17:02.990Z,85.79
2022-11-15T01:22:05.890Z,85.88
2022-11-15T01:27:08.926Z,85.89
2022-11-15T01:32:11.909Z,85.94
2022-11-15T01:37:14.782Z,85.96
2022-11-15T01:42:17.831Z,86.15
2022-11-15T01:47:28.571Z,86.11
2022-11-15T01:52:34.701Z,86.11
2022-11-15T01:57:40.836Z,86.21
2022-11-15T02:02:44.345Z,86.01
2022-11-15T02:07:49.171Z,86.00
2022-11-15T02:12:53.980Z,85.91
2022-11-15T02:18:22.445Z,86.00
2022-11-15T02:24:22.148Z,85.94
2022-11-15T02:29:46.066Z,85.98
2022-11-15T02:35:10.916Z,86.01
2022-11-15T02:40:41.428Z,85.94
2022-11-15T02:45:54.473Z,85.94
2022-11-15T02:50:59.226Z,85.93
2022-11-15T02:56:02.497Z,85.89
2022-11-15T03:01:39.330Z,85.86
2022-11-15T03:07:18.193Z,85.87
2022-11-15T03:12:46.713Z,85.90
2022-11-15T03:18:17.743Z,85.94
2022-11-15T03:23:21.573Z,85.90
2022-11-15T03:28:33.803Z,85.92
2022-11-15T03:33:36.756Z,85.96
2022-11-15T03:38:41.400Z,85.96
2022-11-15T03:43:55.056Z,85.99
2022-11-15T03:49:13.363Z,85.97
2022-11-15T03:54:16.289Z,86.00
2022-11-15T03:59:19.213Z,86.07
2022-11-15T04:04:22.082Z,86.00
2022-11-15T04:09:24.994Z,86.03
2022-11-15T04:14:27.890Z,86.19
2022-11-15T04:19:49.733Z,86.28
2022-11-15T04:24:52.573Z,86.37
2022-11-15T04:29:55.467Z,86.39
2022-11-15T04:34:58.323Z,86.48
2022-11-15T04:40:01.846Z,86.40
2022-11-15T04:45:05.025Z,86.46
2022-11-15T04:50:08.386Z,86.55
2022-11-15T04:55:12.228Z,86.50
2022-11-15T05:00:17.892Z,86.64
2022-11-15T05:05:21.944Z,86.56
2022-11-15T05:10:24.901Z,86.76
2022-11-15T05:15:27.820Z,86.74
2022-11-15T05:20:30.698Z,86.78
2022-11-15T05:25:34.001Z,86.74
2022-11-15T05:30:36.887Z,86.82
2022-11-15T05:35:51.681Z,86.83
2022-11-15T05:40:55.491Z,86.95
2022-11-15T05:46:00.768Z,87.04
2022-11-15T05:51:08.818Z,86.97
2022-11-15T05:56:12.952Z,87.00
2022-11-15T06:01:15.831Z,86.99
2022-11-15T06:06:18.704Z,86.96
2022-11-15T06:11:21.681Z,86.93
2022-11-15T06:16:24.596Z,86.86
2022-11-15T06:21:29.070Z,86.82
2022-11-15T06:26:31.958Z,86.79
2022-11-15T06:31:35.921Z,86.75
2022-11-15T06:36:39.229Z,86.77
2022-11-15T06:41:42.089Z,86.82
2022-11-15T06:46:45.052Z,86.82
2022-11-15T12:48:35.677Z,87.94
2022-11-15T12:53:39.579Z,88.37
2022-11-15T12:58:50.026Z,88.42
2022-11-15T13:04:21.017Z,88.30
2022-11-15T13:09:33.078Z,88.15
2022-11-15T13:14:58.161Z,88.90
2022-11-15T13:20:08.641Z,88.58
2022-11-15T13:25:32.971Z,88.78
2022-11-15T13:30:37.564Z,89.89
2022-11-15T13:35:43.206Z,89.30
2022-11-15T13:40:46.135Z,89.29
2022-11-15T13:46:28.871Z,89.54
2022-11-15T13:51:34.703Z,90.07
2022-11-15T13:56:38.128Z,90.39
2022-11-15T14:01:48.331Z,90.25
2022-11-15T14:06:59.645Z,90.33
2022-11-15T14:12:23.940Z,89.97
2022-11-15T14:17:29.968Z,89.74
2022-11-15T14:22:32.996Z,89.75
2022-11-15T14:27:36.063Z,89.85
2022-11-15T14:32:57.328Z,89.54
2022-11-15T14:38:00.441Z,89.27
2022-11-15T14:43:04.218Z,89.26
2022-11-15T14:48:07.953Z,88.99
2022-11-15T14:53:17.749Z,89.11
2022-11-15T14:58:20.721Z,89.32
2022-11-15T15:03:23.756Z,89.52
2022-11-15T15:08:27.338Z,89.69
2022-11-15T15:13:31.482Z,89.76
2022-11-15T15:18:35.310Z,89.61
2022-11-15T15:23:46.775Z,89.44
2022-11-15T15:28:52.827Z,89.22
2022-11-15T15:33:56.266Z,89.14
2022-11-15T15:38:59.365Z,89.01
2022-11-15T15:44:02.288Z,89.14
2022-11-15T15:49:05.396Z,89.24
2022-11-15T15:54:08.331Z,89.26
2022-11-15T15:59:11.305Z,89.17
2022-11-15T16:04:14.262Z,89.11
2022-11-15T16:09:40.534Z,89.03
2022-11-15T16:14:44.286Z,89.01
2022-11-15T16:19:47.508Z,89.01
2022-11-15T16:24:50.465Z,89.07
2022-11-15T16:29:53.459Z,89.07
2022-11-15T16:34:57.270Z,89.24
2022-11-15T16:40:01.285Z,89.49
2022-11-15T16:45:04.959Z,89.75
2022-11-15T16:50:24.357Z,89.99
2022-11-15T16:55:29.892Z,90.19
2022-11-15T17:00:32.866Z,90.38
2022-11-15T17:05:35.862Z,90.32
2022-11-15T17:10:44.287Z,90.32
2022-11-15T17:15:47.246Z,90.17
2022-11-15T17:20:50.812Z,90.36
2022-11-15T17:26:17.802Z,90.43
2022-11-15T17:31:30.448Z,90.62
2022-11-15T17:36:34.955Z,90.84
2022-11-15T17:41:37.899Z,91.04
2022-11-15T17:46:40.903Z,91.41
2022-11-15T17:51:47.425Z,91.39
2022-11-15T17:56:52.909Z,91.15
2022-11-15T18:01:56.334Z,91.13
2022-11-15T18:06:59.693Z,91.04
2022-11-15T18:12:02.859Z,90.94
2022-11-15T18:17:05.906Z,90.66
2022-11-15T18:22:10.417Z,90.49
2022-11-15T18:27:13.707Z,90.61
2022-11-15T18:32:17.987Z,90.70
2022-11-15T18:37:22.105Z,90.96
2022-11-15T18:42:25.780Z,90.91
2022-11-15T18:47:30.550Z,91.18
2022-11-15T18:52:33.701Z,91.29
2022-11-15T18:57:36.642Z,91.38
2022-11-15T19:02:39.675Z,91.49
2022-11-15T19:07:43.058Z,91.55
2022-11-15T19:12:47.403Z,91.61
2022-11-15T19:17:50.399Z,91.48
2022-11-15T19:22:53.971Z,91.49
2022-11-15T19:27:56.921Z,91.41
2022-11-15T19:32:59.826Z,91.43
2022-11-15T19:38:03.153Z,91.39
2022-11-15T19:43:07.236Z,91.25
2022-11-15T19:48:11.154Z,91.24
2022-11-15T19:53:14.296Z,91.25
2022-11-15T19:58:18.099Z,91.17
2022-11-15T20:03:21.414Z,91.16
2022-11-15T20:08:24.352Z,91.21
2022-11-15T20:13:28.109Z,91.20
2022-11-15T20:18:31.759Z,91.22
2022-11-15T20:23:35.125Z,91.25
2022-11-15T20:28:40.289Z,91.11
2022-11-15T20:33:43.593Z,91.02
2022-11-15T20:38:46.586Z,90.82
2022-11-15T20:43:50.034Z,90.80
2022-11-15T20:48:53.657Z,90.78
2022-11-15T20:53:56.900Z,90.74
2022-11-15T20:58:59.824Z,90.64
2022-11-15T21:04:03.240Z,90.68
2022-11-15T21:09:24.654Z,90.68
2022-11-15T21:14:27.762Z,90.57
2022-11-15T21:19:39.653Z,90.49
2022-11-15T21:24:43.793Z,90.48
2022-11-15T21:29:50.107Z,90.53
2022-11-15T21:34:54.486Z,90.54
2022-11-15T21:39:57.384Z,90.57
2022-11-15T21:45:00.291Z,90.64
2022-11-15T21:50:03.281Z,90.79
2022-11-15T21:55:06.742Z,90.96
2022-11-15T22:00:29.612Z,90.96
2022-11-15T22:05:53.866Z,90.81
2022-11-15T22:10:57.382Z,90.85
2022-11-15T22:16:00.608Z,90.96
2022-11-15T22:21:07.884Z,91.22
2022-11-15T22:26:23.021Z,91.36
2022-11-15T22:31:26.980Z,91.65
2022-11-15T22:36:42.534Z,91.77
2022-11-15T22:41:53.537Z,91.87
2022-11-15T22:46:56.626Z,91.85
2022-11-15T22:51:59.748Z,91.86
2022-11-15T22:57:04.366Z,92.21
2022-11-15T23:02:07.535Z,92.44
2022-11-15T23:07:10.790Z,92.70
2022-11-15T23:12:32.503Z,92.85
2022-11-15T23:17:35.675Z,92.94
2022-11-15T23:22:47.686Z,92.91
2022-11-15T23:27:50.776Z,92.97
2022-11-15T23:33:12.435Z,92.86
2022-11-15T23:38:15.510Z,92.92
2022-11-15T23:43:18.925Z,92.89
2022-11-15T23:48:22.265Z,93.10
2022-11-15T23:53:25.421Z,93.19
2022-11-15T23:58:29.201Z,93.35
